Time;durP1;ratioP1;P1;durP2;ratioP2;P2;SDS_P1;SDS_P2;PMS_P1;PMS_P2;Temp;Humidity;BMP_temperature;BMP_pressure;BME280_temperature;BME280_humidity;BME280_pressure;Samples;Min_cycle;Max_cycle;Signal;HPM_P1;HPM_P2
2023/09/22 00:00:10;;;;;;;4.93;2.42;;;;;;;-141.50;100.00;63355.56;5041494;28;20041;-80
2023/09/22 00:02:39;;;;;;;4.53;2.38;;;;;;;-141.50;100.00;63355.56;5039771;28;20046;-78
2023/09/22 00:05:07;;;;;;;2.47;1.52;;;;;;;-141.50;100.00;63355.56;5025854;28;20072;-78
2023/09/22 00:07:34;;;;;;;2.55;1.67;;;;;;;-141.50;100.00;63355.56;5040989;28;20045;-78
2023/09/22 00:10:01;;;;;;;1.67;1.40;;;;;;;-141.50;100.00;63355.56;5040193;28;20365;-79
2023/09/22 00:12:33;;;;;;;2.85;1.23;;;;;;;-141.50;100.00;63355.56;5041253;28;20052;-79
2023/09/22 00:15:01;;;;;;;1.80;1.45;;;;;;;-141.50;100.00;63355.56;5040405;28;21509;-78
2023/09/22 00:17:28;;;;;;;2.90;1.00;;;;;;;-141.50;100.00;63355.56;5040766;28;20054;-79
2023/09/22 00:19:55;;;;;;;2.55;0.90;;;;;;;-141.50;100.00;63355.56;5054534;28;20072;-79
2023/09/22 00:22:22;;;;;;;1.63;0.90;;;;;;;-141.50;100.00;63355.56;5042253;28;20076;-78
2023/09/22 00:24:50;;;;;;;1.33;0.63;;;;;;;-141.50;100.00;63355.56;5039474;28;20053;-78
2023/09/22 00:27:17;;;;;;;1.08;0.88;;;;;;;-141.50;100.00;63355.56;5039457;28;20423;-79
2023/09/22 00:29:44;;;;;;;1.27;0.60;;;;;;;-141.50;100.00;63355.56;5038118;28;20097;-79
2023/09/22 00:32:14;;;;;;;1.70;0.88;;;;;;;-141.50;100.00;63355.56;5038334;28;20061;-79
2023/09/22 00:34:41;;;;;;;1.58;0.70;;;;;;;-141.50;100.00;63355.56;5021118;28;20300;-78
2023/09/22 00:37:08;;;;;;;1.13;0.70;;;;;;;-141.50;100.00;63355.56;5017747;28;20046;-79
2023/09/22 00:39:35;;;;;;;2.33;0.98;;;;;;;-141.50;100.00;63355.56;5014410;28;20241;-78
2023/09/22 00:42:05;;;;;;;1.27;0.50;;;;;;;-141.50;100.00;63355.56;5031235;28;20053;-81
2023/09/22 00:44:32;;;;;;;0.80;0.50;;;;;;;-141.50;100.00;63355.56;5029440;28;20046;-79
2023/09/22 00:47:00;;;;;;;0.75;0.50;;;;;;;-141.50;100.00;63355.56;5027041;28;20046;-78
2023/09/22 00:49:27;;;;;;;5.13;0.75;;;;;;;-141.50;100.00;63355.56;5038375;28;20049;-79
2023/09/22 00:51:55;;;;;;;1.02;0.57;;;;;;;-141.50;100.00;63355.56;5040249;28;20132;-81
2023/09/22 00:54:23;;;;;;;1.83;1.00;;;;;;;-141.50;100.00;63355.56;5038384;28;20423;-80
2023/09/22 00:56:51;;;;;;;4.22;1.13;;;;;;;-141.50;100.00;63355.56;5022325;28;20048;-80
2023/09/22 00:59:18;;;;;;;1.00;0.70;;;;;;;-141.50;100.00;63355.56;5039823;28;20113;-80
2023/09/22 01:01:47;;;;;;;1.27;0.73;;;;;;;-141.50;100.00;63355.56;5040324;28;20050;-80
2023/09/22 01:04:19;;;;;;;1.50;0.50;;;;;;;-141.50;100.00;63355.56;5041869;28;20046;-80
2023/09/22 01:06:52;;;;;;;0.70;0.55;;;;;;;-141.50;100.00;63355.56;5039017;28;20522;-80
2023/09/22 01:09:19;;;;;;;0.75;0.52;;;;;;;-141.50;100.00;63355.56;5019087;28;20057;-81
2023/09/22 01:11:46;;;;;;;0.90;0.40;;;;;;;-141.50;100.00;63355.56;5056704;28;20489;-80
2023/09/22 01:14:13;;;;;;;0.70;0.30;;;;;;;-141.50;100.00;63355.56;5041189;28;20105;-79
2023/09/22 01:16:41;;;;;;;0.30;0.20;;;;;;;-141.50;100.00;63355.56;5041214;28;20041;-81
2023/09/22 01:19:19;;;;;;;3.35;0.40;;;;;;;-141.50;100.00;63355.56;5039672;28;20365;-81
2023/09/22 01:21:49;;;;;;;0.30;0.30;;;;;;;-141.50;100.00;63355.56;5039345;28;20080;-81
2023/09/22 01:24:16;;;;;;;0.90;0.28;;;;;;;-141.50;100.00;63355.56;5040284;28;20084;-82
2023/09/22 01:26:43;;;;;;;0.50;0.30;;;;;;;-141.50;100.00;63355.56;5039714;28;20143;-79
2023/09/22 01:29:10;;;;;;;0.40;0.20;;;;;;;-141.50;100.00;63355.56;5021607;28;20061;-80
2023/09/22 01:31:37;;;;;;;0.20;0.20;;;;;;;-141.50;100.00;63355.56;5053863;28;20053;-79
2023/09/22 01:34:08;;;;;;;0.20;0.20;;;;;;;-141.50;100.00;63355.56;5040808;28;20581;-79
2023/09/22 01:36:41;;;;;;;0.10;0.10;;;;;;;-141.50;100.00;63355.56;5014730;28;20045;-78
2023/09/22 01:39:13;;;;;;;0.57;0.20;;;;;;;-141.50;100.00;63355.56;5040514;28;20238;-81
2023/09/22 01:41:45;;;;;;;0.40;0.20;;;;;;;-141.50;100.00;63355.56;5038398;28;20045;-79
2023/09/22 01:44:12;;;;;;;0.40;0.20;;;;;;;-141.50;100.00;63355.56;5022252;28;20056;-78
2023/09/22 01:46:39;;;;;;;0.28;0.17;;;;;;;-141.50;100.00;63355.56;5044386;28;20041;-78
2023/09/22 01:49:06;;;;;;;1.05;0.20;;;;;;;-141.50;100.00;63355.56;5045526;28;20068;-78
2023/09/22 01:51:33;;;;;;;0.60;0.20;;;;;;;-141.50;100.00;63355.56;5043605;28;20052;-78
2023/09/22 01:54:00;;;;;;;0.63;0.20;;;;;;;-141.50;100.00;63355.56;5044895;28;20034;-79
2023/09/22 01:56:26;;;;;;;0.20;0.10;;;;;;;-141.50;100.00;63355.56;5043762;28;20082;-79
2023/09/22 01:58:53;;;;;;;0.20;0.15;;;;;;;-141.50;100.00;63355.56;5025411;28;20669;-80
2023/09/22 02:01:20;;;;;;;0.10;0.10;;;;;;;-141.50;100.00;63355.56;5042412;28;20061;-78
2023/09/22 02:03:47;;;;;;;1.58;0.20;;;;;;;-141.50;100.00;63355.56;5041531;28;20531;-79
2023/09/22 02:06:14;;;;;;;0.30;0.20;;;;;;;-141.50;100.00;63355.56;5020148;28;20474;-79
2023/09/22 02:08:42;;;;;;;0.38;0.13;;;;;;;-141.50;100.00;63355.56;5037350;28;20049;-80
2023/09/22 02:11:11;;;;;;;0.25;0.20;;;;;;;-141.50;100.00;63355.56;5036884;28;20041;-79
2023/09/22 02:13:40;;;;;;;0.10;0.10;;;;;;;-141.50;100.00;63355.56;5037429;28;20487;-80
2023/09/22 02:16:07;;;;;;;0.63;0.13;;;;;;;-141.50;100.00;63355.56;5021061;28;20080;-79
2023/09/22 02:18:36;;;;;;;0.13;0.10;;;;;;;-141.50;100.00;63355.56;5032642;28;20500;-80
2023/09/22 02:21:10;;;;;;;0.20;0.10;;;;;;;-141.50;100.00;63355.56;5025307;28;20052;-79
2023/09/22 02:23:39;;;;;;;0.13;0.10;;;;;;;-141.50;100.00;63355.56;5011484;28;20048;-80
2023/09/22 02:26:07;;;;;;;0.17;0.13;;;;;;;-141.50;100.00;63355.56;5000191;28;20101;-79
2023/09/22 02:28:37;;;;;;;0.10;0.10;;;;;;;-141.50;100.00;63355.56;5035154;28;20057;-81
2023/09/22 02:31:04;;;;;;;0.50;0.15;;;;;;;-141.50;100.00;63355.56;5043743;28;20057;-79
2023/09/22 02:33:31;;;;;;;0.32;0.10;;;;;;;-141.50;100.00;63355.56;5021417;28;20719;-78
2023/09/22 02:35:59;;;;;;;0.47;0.20;;;;;;;-141.50;100.00;63355.56;5029531;28;20073;-80
2023/09/22 02:38:26;;;;;;;0.55;0.10;;;;;;;-141.50;100.00;63355.56;5014256;28;20041;-79
2023/09/22 02:40:53;;;;;;;0.32;0.20;;;;;;;-141.50;100.00;63355.56;5013447;28;20045;-78
2023/09/22 02:43:23;;;;;;;0.20;0.20;;;;;;;-141.50;100.00;63355.56;5031945;28;20519;-79
2023/09/22 02:45:53;;;;;;;0.10;0.10;;;;;;;-141.50;100.00;63355.56;5034467;28;20074;-78
2023/09/22 02:48:20;;;;;;;0.55;0.20;;;;;;;-141.50;100.00;63355.56;5033813;28;20052;-79
2023/09/22 02:50:47;;;;;;;0.20;0.10;;;;;;;-141.50;100.00;63355.56;5032966;28;20167;-78
2023/09/22 02:53:14;;;;;;;1.75;0.30;;;;;;;-141.50;100.00;63355.56;5027664;28;20050;-81
2023/09/22 02:55:41;;;;;;;0.20;0.20;;;;;;;-141.50;100.00;63355.56;5030273;28;20045;-81
2023/09/22 02:58:08;;;;;;;0.30;0.20;;;;;;;-141.50;100.00;63355.56;5032814;28;20128;-80
2023/09/22 03:00:36;;;;;;;0.65;0.20;;;;;;;-141.50;100.00;63355.56;5017990;28;20689;-79
2023/09/22 03:03:03;;;;;;;0.85;0.20;;;;;;;-141.50;100.00;63355.56;5030587;28;20056;-80
2023/09/22 03:05:30;;;;;;;3.05;0.52;;;;;;;-141.50;100.00;63355.56;5031048;28;20061;-80
2023/09/22 03:07:58;;;;;;;0.38;0.20;;;;;;;-141.50;100.00;63355.56;5031645;28;20061;-81
2023/09/22 03:10:25;;;;;;;0.57;0.30;;;;;;;-141.50;100.00;63355.56;4999532;28;20046;-80
2023/09/22 03:12:53;;;;;;;0.55;0.22;;;;;;;-141.50;100.00;63355.56;5032067;28;20091;-80
2023/09/22 03:15:21;;;;;;;0.20;0.20;;;;;;;-141.50;100.00;63355.56;5034010;28;20384;-79
2023/09/22 03:17:48;;;;;;;0.70;0.30;;;;;;;-141.50;100.00;63355.56;5034168;28;20045;-79
2023/09/22 03:20:17;;;;;;;0.95;0.20;;;;;;;-141.50;100.00;63355.56;5034506;28;20056;-79
2023/09/22 03:22:45;;;;;;;0.68;0.25;;;;;;;-141.50;100.00;63355.56;5032851;28;20053;-79
2023/09/22 03:25:14;;;;;;;2.38;0.50;;;;;;;-141.50;100.00;63355.56;5032328;28;20045;-80
2023/09/22 03:27:42;;;;;;;1.83;0.50;;;;;;;-141.50;100.00;63355.56;5020634;28;20033;-80
2023/09/22 03:30:11;;;;;;;0.90;0.30;;;;;;;-141.50;100.00;63355.56;5029830;28;20132;-80
2023/09/22 03:32:39;;;;;;;1.10;0.40;;;;;;;-141.50;100.00;63355.56;5031106;28;20042;-79
2023/09/22 03:35:09;;;;;;;1.05;0.50;;;;;;;-141.50;100.00;63355.56;5030128;28;20447;-80
2023/09/22 03:37:39;;;;;;;1.17;0.43;;;;;;;-141.50;100.00;63355.56;5032336;28;20492;-80
2023/09/22 03:40:13;;;;;;;0.43;0.30;;;;;;;-141.50;100.00;63355.56;5029092;28;20140;-81
2023/09/22 03:42:43;;;;;;;1.00;0.40;;;;;;;-141.50;100.00;63355.56;5029440;28;20045;-79
2023/09/22 03:45:11;;;;;;;2.38;0.50;;;;;;;-141.50;100.00;63355.56;5032517;28;20049;-78
2023/09/22 03:47:39;;;;;;;1.13;0.52;;;;;;;-141.50;100.00;63355.56;5032802;28;20453;-82
2023/09/22 03:50:06;;;;;;;2.30;0.30;;;;;;;-141.50;100.00;63355.56;5015443;28;20053;-81
2023/09/22 03:52:34;;;;;;;0.80;0.40;;;;;;;-141.50;100.00;63355.56;5016778;28;20045;-80
2023/09/22 03:55:01;;;;;;;1.50;0.50;;;;;;;-141.50;100.00;63355.56;5031943;28;20037;-81
2023/09/22 03:57:27;;;;;;;1.42;0.47;;;;;;;-141.50;100.00;63355.56;5017439;28;20255;-80
2023/09/22 03:59:54;;;;;;;0.95;0.40;;;;;;;-141.50;100.00;63355.56;5016271;28;20423;-80
2023/09/22 04:02:21;;;;;;;1.02;0.50;;;;;;;-141.50;100.00;63355.56;5018125;28;20072;-80
2023/09/22 04:04:48;;;;;;;2.92;0.57;;;;;;;-141.50;100.00;63355.56;5038435;28;20117;-80
2023/09/22 04:07:15;;;;;;;0.75;0.50;;;;;;;-141.50;100.00;63355.56;5031669;28;20045;-79
2023/09/22 04:09:42;;;;;;;0.70;0.50;;;;;;;-141.50;100.00;63355.56;5036402;28;20111;-80
2023/09/22 04:12:09;;;;;;;0.60;0.40;;;;;;;-141.50;100.00;63355.56;5037174;28;20045;-79
2023/09/22 04:14:37;;;;;;;2.63;0.55;;;;;;;-141.50;100.00;63355.56;5036663;28;20037;-80
2023/09/22 04:17:09;;;;;;;0.50;0.40;;;;;;;-141.50;100.00;63355.56;5039684;28;20095;-81
2023/09/22 04:19:37;;;;;;;0.73;0.50;;;;;;;-141.50;100.00;63355.56;5040716;28;20049;-80
2023/09/22 04:22:06;;;;;;;2.20;0.40;;;;;;;-141.50;100.00;63355.56;5039387;28;20057;-80
2023/09/22 04:24:34;;;;;;;2.42;0.50;;;;;;;-141.50;100.00;63355.56;5039680;28;20049;-79
2023/09/22 04:27:06;;;;;;;1.42;0.60;;;;;;;-141.50;100.00;63355.56;5033737;28;20578;-79
2023/09/22 04:29:36;;;;;;;0.80;0.40;;;;;;;-141.50;100.00;63355.56;5034760;28;20104;-79
2023/09/22 04:32:04;;;;;;;0.65;0.47;;;;;;;-141.50;100.00;63355.56;5040530;28;20057;-80
2023/09/22 04:34:32;;;;;;;1.13;0.40;;;;;;;-141.50;100.00;63355.56;5032376;28;20065;-78
2023/09/22 04:37:04;;;;;;;2.30;0.75;;;;;;;-141.50;100.00;63355.56;5034256;28;20049;-79
2023/09/22 04:39:32;;;;;;;0.40;0.30;;;;;;;-141.50;100.00;63355.56;5034665;28;20057;-78
2023/09/22 04:42:05;;;;;;;0.50;0.20;;;;;;;-141.50;100.00;63355.56;5031896;28;20037;-80
2023/09/22 04:44:32;;;;;;;0.85;0.50;;;;;;;-141.50;100.00;63355.56;5043578;28;20048;-79
2023/09/22 04:47:00;;;;;;;1.38;0.28;;;;;;;-141.50;100.00;63355.56;5041335;28;20393;-79
2023/09/22 04:49:27;;;;;;;0.80;0.40;;;;;;;-141.50;100.00;63355.56;5043043;28;20049;-79
2023/09/22 04:51:53;;;;;;;1.02;0.45;;;;;;;-141.50;100.00;63355.56;5033535;28;20049;-80
2023/09/22 04:54:20;;;;;;;0.45;0.25;;;;;;;-141.50;100.00;63355.56;5037095;28;20065;-81
2023/09/22 04:56:47;;;;;;;0.85;0.30;;;;;;;-141.50;100.00;63355.56;5040966;28;20049;-83
2023/09/22 04:59:17;;;;;;;1.08;0.40;;;;;;;-141.50;100.00;63355.56;5021943;28;20053;-82
2023/09/22 05:01:44;;;;;;;0.40;0.30;;;;;;;-141.50;100.00;63355.56;5016554;28;20419;-81
2023/09/22 05:04:11;;;;;;;0.75;0.40;;;;;;;-141.50;100.00;63355.56;5036145;28;20478;-81
2023/09/22 05:06:38;;;;;;;0.45;0.32;;;;;;;-141.50;100.00;63355.56;5036488;28;20060;-81
2023/09/22 05:09:08;;;;;;;0.63;0.28;;;;;;;-141.50;100.00;63355.56;5034256;28;20516;-81
2023/09/22 05:11:35;;;;;;;0.75;0.30;;;;;;;-141.50;100.00;63355.56;5029440;28;20479;-83
2023/09/22 05:14:05;;;;;;;0.52;0.30;;;;;;;-141.50;100.00;63355.56;5024344;28;21760;-82
2023/09/22 05:16:32;;;;;;;0.40;0.20;;;;;;;-141.50;100.00;63355.56;5030253;28;20133;-81
2023/09/22 05:19:02;;;;;;;0.32;0.30;;;;;;;-141.50;100.00;63355.56;5031352;28;20132;-82
2023/09/22 05:21:29;;;;;;;1.42;0.50;;;;;;;-141.50;100.00;63355.56;5031468;28;20068;-82
2023/09/22 05:23:56;;;;;;;2.88;0.57;;;;;;;-141.50;100.00;63355.56;5049548;28;20067;-82
2023/09/22 05:26:23;;;;;;;0.70;0.30;;;;;;;-141.50;100.00;63355.56;5029633;28;20061;-79
2023/09/22 05:28:50;;;;;;;0.40;0.28;;;;;;;-141.50;100.00;63355.56;5028300;28;20048;-80
2023/09/22 05:31:19;;;;;;;2.85;0.30;;;;;;;-141.50;100.00;63355.56;5029480;28;20115;-82
2023/09/22 05:33:46;;;;;;;0.88;0.45;;;;;;;-141.50;100.00;63355.56;5030616;28;20065;-83
2023/09/22 05:36:13;;;;;;;3.25;0.30;;;;;;;-141.50;100.00;63355.56;5030966;28;20045;-82
2023/09/22 05:38:40;;;;;;;1.58;0.55;;;;;;;-141.50;100.00;63355.56;5014034;28;20042;-81
2023/09/22 05:41:08;;;;;;;0.85;0.28;;;;;;;-141.50;100.00;63355.56;5028504;28;20460;-82
2023/09/22 05:43:35;;;;;;;1.55;0.35;;;;;;;-141.50;100.00;63355.56;5029723;28;20049;-84
2023/09/22 05:46:03;;;;;;;0.57;0.40;;;;;;;-141.50;100.00;63355.56;5033298;28;20045;-82
2023/09/22 05:48:31;;;;;;;0.75;0.45;;;;;;;-141.50;100.00;63355.56;5028999;28;20049;-82
2023/09/22 05:50:59;;;;;;;1.77;0.40;;;;;;;-141.50;100.00;63355.56;5017028;28;20045;-81
2023/09/22 05:53:27;;;;;;;1.73;0.40;;;;;;;-141.50;100.00;63355.56;5027709;28;20100;-82
2023/09/22 05:56:08;;;;;;;0.50;0.30;;;;;;;-141.50;100.00;63355.56;5045857;28;20052;-82
2023/09/22 05:58:36;;;;;;;2.85;0.50;;;;;;;-141.50;100.00;63355.56;5031965;28;20041;-81
2023/09/22 06:01:09;;;;;;;0.50;0.30;;;;;;;-141.50;100.00;63355.56;5032077;28;20038;-82
2023/09/22 06:03:38;;;;;;;0.70;0.40;;;;;;;-141.50;100.00;63355.56;5032067;28;20334;-81
2023/09/22 06:06:12;;;;;;;1.80;0.50;;;;;;;-141.50;100.00;63355.56;5041547;28;20092;-80
2023/09/22 06:08:43;;;;;;;1.10;0.52;;;;;;;-141.50;100.00;63355.56;5028303;28;20320;-81
2023/09/22 06:11:11;;;;;;;0.93;0.40;;;;;;;-141.50;100.00;63355.56;5028175;28;20203;-80
2023/09/22 06:13:39;;;;;;;0.73;0.40;;;;;;;-141.50;100.00;63355.56;5028659;28;20417;-82
2023/09/22 06:16:06;;;;;;;1.88;0.60;;;;;;;-141.50;100.00;63355.56;5023835;28;20068;-82
2023/09/22 06:18:33;;;;;;;1.17;0.60;;;;;;;-141.50;100.00;63355.56;5009051;28;20045;-82
2023/09/22 06:21:01;;;;;;;1.42;0.50;;;;;;;-141.50;100.00;63355.56;5025640;28;20126;-80
2023/09/22 06:23:28;;;;;;;1.10;0.40;;;;;;;-141.50;100.00;63355.56;5026828;28;20056;-80
2023/09/22 06:26:01;;;;;;;2.72;0.50;;;;;;;-141.50;100.00;63355.56;5026659;28;20401;-80
2023/09/22 06:28:28;;;;;;;0.70;0.40;;;;;;;-141.50;100.00;63355.56;5028578;28;20133;-79
2023/09/22 06:30:59;;;;;;;2.22;0.63;;;;;;;-141.50;100.00;63355.56;5026240;28;20041;-83
2023/09/22 06:33:27;;;;;;;1.15;0.50;;;;;;;-141.50;100.00;63355.56;5026978;28;20123;-79
2023/09/22 06:36:00;;;;;;;1.60;0.60;;;;;;;-141.50;100.00;63355.56;5025638;28;20052;-79
2023/09/22 06:38:27;;;;;;;0.98;0.50;;;;;;;-141.50;100.00;63355.56;5028011;28;20049;-79
2023/09/22 06:40:55;;;;;;;0.82;0.40;;;;;;;-141.50;100.00;63355.56;5027962;28;20053;-81
2023/09/22 06:43:25;;;;;;;2.00;0.60;;;;;;;-141.50;100.00;63355.56;5026019;28;20056;-80
2023/09/22 06:45:56;;;;;;;1.20;0.60;;;;;;;-141.50;100.00;63355.56;5025992;28;20042;-78
2023/09/22 06:48:26;;;;;;;0.63;0.50;;;;;;;-141.50;100.00;63355.56;5022957;28;20057;-81
2023/09/22 06:51:00;;;;;;;1.25;0.60;;;;;;;-141.50;100.00;63355.56;5026281;28;20053;-80
2023/09/22 06:53:28;;;;;;;1.42;0.52;;;;;;;-141.50;100.00;63355.56;5027353;28;20049;-80
2023/09/22 06:56:09;;;;;;;0.75;0.40;;;;;;;-141.50;100.00;63355.56;5011731;28;20045;-82
2023/09/22 06:58:40;;;;;;;1.25;0.63;;;;;;;-141.50;100.00;63355.56;5030587;28;20045;-81
2023/09/22 07:01:13;;;;;;;1.10;0.60;;;;;;;-141.50;100.00;63355.56;5026474;28;20054;-79
2023/09/22 07:03:42;;;;;;;1.73;0.57;;;;;;;-141.50;100.00;63355.56;5010758;28;20045;-80
2023/09/22 07:06:14;;;;;;;1.02;0.52;;;;;;;-141.50;100.00;63355.56;5028788;28;20045;-83
2023/09/22 07:08:44;;;;;;;1.17;0.60;;;;;;;-141.50;100.00;63355.56;5030488;28;20053;-82
2023/09/22 07:11:12;;;;;;;3.72;0.80;;;;;;;-141.50;100.00;63355.56;5023161;28;20068;-82
2023/09/22 07:13:40;;;;;;;1.35;0.50;;;;;;;-141.50;100.00;63355.56;5023704;28;20057;-81
2023/09/22 07:16:09;;;;;;;1.13;0.57;;;;;;;-141.50;100.00;63355.56;5027376;28;20125;-79
2023/09/22 07:18:36;;;;;;;1.40;0.60;;;;;;;-141.50;100.00;63355.56;5026298;28;20049;-81
2023/09/22 07:21:03;;;;;;;0.90;0.50;;;;;;;-141.50;100.00;63355.56;5024562;28;20696;-80
2023/09/22 07:23:32;;;;;;;2.38;0.68;;;;;;;-141.50;100.00;63355.56;5029002;28;20049;-83
2023/09/22 07:26:00;;;;;;;1.08;0.40;;;;;;;-141.50;100.00;63355.56;5034407;28;20049;-82
2023/09/22 07:28:28;;;;;;;2.25;0.60;;;;;;;-141.50;100.00;63355.56;5032176;28;20068;-80
2023/09/22 07:30:55;;;;;;;0.95;0.50;;;;;;;-141.50;100.00;63355.56;5031760;28;20041;-81
2023/09/22 07:33:24;;;;;;;1.00;0.55;;;;;;;-141.50;100.00;63355.56;5032610;28;20107;-82
2023/09/22 07:35:51;;;;;;;1.58;0.65;;;;;;;-141.50;100.00;63355.56;5031323;28;20462;-82
2023/09/22 07:38:18;;;;;;;2.55;0.73;;;;;;;-141.50;100.00;63355.56;5029170;28;20132;-83
2023/09/22 07:40:45;;;;;;;1.20;0.52;;;;;;;-141.50;100.00;63355.56;5045125;28;20454;-80
2023/09/22 07:43:12;;;;;;;1.15;0.45;;;;;;;-141.50;100.00;63355.56;5031892;28;20123;-81
2023/09/22 07:45:39;;;;;;;1.95;0.40;;;;;;;-141.50;100.00;63355.56;5027504;28;20045;-81
2023/09/22 07:48:06;;;;;;;0.82;0.50;;;;;;;-141.50;100.00;63355.56;5029732;28;20076;-81
2023/09/22 07:50:35;;;;;;;2.40;0.98;;;;;;;-141.50;100.00;63355.56;5028414;28;20041;-81
2023/09/22 07:53:02;;;;;;;2.60;1.08;;;;;;;-141.50;100.00;63355.56;5030150;28;20049;-82
2023/09/22 07:55:30;;;;;;;1.85;0.55;;;;;;;-141.50;100.00;63355.56;5028784;28;20486;-81
2023/09/22 07:57:57;;;;;;;0.73;0.40;;;;;;;-141.50;100.00;63355.56;5031242;28;20499;-83
2023/09/22 08:00:26;;;;;;;3.45;0.60;;;;;;;-141.50;100.00;63355.56;5028500;28;20045;-82
2023/09/22 08:02:53;;;;;;;3.67;1.08;;;;;;;-141.50;100.00;63355.56;5031371;28;20041;-80
2023/09/22 08:05:20;;;;;;;1.27;0.57;;;;;;;-141.50;100.00;63355.56;5026972;28;20140;-80
2023/09/22 08:07:51;;;;;;;0.95;0.50;;;;;;;-141.50;100.00;63355.56;5010415;28;20049;-79
2023/09/22 08:10:18;;;;;;;4.28;1.27;;;;;;;-141.50;100.00;63355.56;5028010;28;20096;-82
2023/09/22 08:12:45;;;;;;;1.75;0.68;;;;;;;-141.50;100.00;63355.56;5032449;28;20058;-81
2023/09/22 08:15:14;;;;;;;10.32;5.00;;;;;;;-141.50;100.00;63355.56;5013725;28;20069;-82
2023/09/22 08:17:42;;;;;;;1.85;0.60;;;;;;;-141.50;100.00;63355.56;5028709;28;20053;-82
2023/09/22 08:20:12;;;;;;;1.77;0.90;;;;;;;-141.50;100.00;63355.56;5032328;28;20049;-82
2023/09/22 08:22:42;;;;;;;2.35;0.80;;;;;;;-141.50;100.00;63355.56;5034566;28;20049;-81
2023/09/22 08:25:10;;;;;;;1.45;0.70;;;;;;;-141.50;100.00;63355.56;5015151;28;20511;-82
2023/09/22 08:27:38;;;;;;;1.35;0.60;;;;;;;-141.50;100.00;63355.56;5031071;28;20048;-83
2023/09/22 08:30:11;;;;;;;1.60;0.80;;;;;;;-141.50;100.00;63355.56;5024983;28;20038;-83
2023/09/22 08:32:41;;;;;;;1.75;0.60;;;;;;;-141.50;100.00;63355.56;5033109;28;20041;-82
2023/09/22 08:35:10;;;;;;;0.70;0.50;;;;;;;-141.50;100.00;63355.56;5035044;28;20089;-81
2023/09/22 08:37:40;;;;;;;3.88;1.63;;;;;;;-141.50;100.00;63355.56;5029353;28;20475;-81
2023/09/22 08:40:15;;;;;;;2.90;0.63;;;;;;;-141.50;100.00;63355.56;5032726;28;20770;-82
2023/09/22 08:42:44;;;;;;;2.95;0.85;;;;;;;-141.50;100.00;63355.56;5032923;28;20042;-83
2023/09/22 08:45:12;;;;;;;1.73;0.80;;;;;;;-141.50;100.00;63355.56;5034914;28;20518;-82
2023/09/22 08:47:42;;;;;;;0.80;0.47;;;;;;;-141.50;100.00;63355.56;5032043;28;20143;-78
2023/09/22 08:50:11;;;;;;;1.73;0.90;;;;;;;-141.50;100.00;63355.56;5033914;28;20068;-81
2023/09/22 08:52:40;;;;;;;1.35;0.68;;;;;;;-141.50;100.00;63355.56;5034558;28;20565;-83
2023/09/22 08:55:14;;;;;;;2.25;0.77;;;;;;;-141.50;100.00;63355.56;5008954;28;20053;-79
2023/09/22 08:57:44;;;;;;;1.98;0.73;;;;;;;-141.50;100.00;63355.56;5030825;28;20045;-84
2023/09/22 09:00:18;;;;;;;2.83;0.80;;;;;;;-141.50;100.00;63355.56;5030121;28;20049;-82
2023/09/22 09:02:46;;;;;;;1.08;0.57;;;;;;;-141.50;100.00;63355.56;5028479;28;20083;-81
2023/09/22 09:05:27;;;;;;;2.03;0.73;;;;;;;-141.50;100.00;63355.56;5030715;28;20495;-81
2023/09/22 09:07:55;;;;;;;1.17;0.60;;;;;;;-141.50;100.00;63355.56;5030175;28;20045;-82
2023/09/22 09:10:31;;;;;;;1.23;0.63;;;;;;;-141.50;100.00;63355.56;5031197;28;20049;-79
2023/09/22 09:13:01;;;;;;;2.05;0.75;;;;;;;-141.50;100.00;63355.56;5032714;28;21552;-81
2023/09/22 09:15:30;;;;;;;2.15;0.70;;;;;;;-141.50;100.00;63355.56;5015969;28;20053;-80
2023/09/22 09:18:05;;;;;;;2.28;1.17;;;;;;;-141.50;100.00;63355.56;5032757;28;20985;-81
2023/09/22 09:20:34;;;;;;;2.30;0.90;;;;;;;-141.50;100.00;63355.56;5032853;28;21738;-82
2023/09/22 09:23:14;;;;;;;2.47;0.80;;;;;;;-141.50;100.00;63355.56;5036999;28;20044;-82
2023/09/22 09:25:45;;;;;;;1.83;0.70;;;;;;;-141.50;100.00;63355.56;5031196;28;20061;-82
2023/09/22 09:28:13;;;;;;;1.77;0.70;;;;;;;-141.50;100.00;63355.56;5015980;28;20176;-79
2023/09/22 09:30:55;;;;;;;3.35;0.70;;;;;;;-141.50;100.00;63355.56;5033496;28;20132;-81
2023/09/22 09:33:24;;;;;;;2.22;0.80;;;;;;;-141.50;100.00;63355.56;5024098;28;20053;-80
2023/09/22 09:35:52;;;;;;;2.75;0.70;;;;;;;-141.50;100.00;63355.56;5047837;28;20048;-79
2023/09/22 09:38:20;;;;;;;1.02;0.70;;;;;;;-141.50;100.00;63355.56;5032251;28;20530;-81
2023/09/22 09:40:50;;;;;;;1.90;0.80;;;;;;;-141.50;100.00;63355.56;5029327;28;20041;-79
2023/09/22 09:43:16;;;;;;;4.28;2.17;;;;;;;-141.50;100.00;63355.56;5033161;28;20079;-80
2023/09/22 09:45:57;;;;;;;1.65;0.70;;;;;;;-141.50;100.00;63355.56;5028388;28;20278;-78
2023/09/22 09:48:26;;;;;;;1.25;0.70;;;;;;;-141.50;100.00;63355.56;5015602;28;20049;-80
2023/09/22 09:50:57;;;;;;;2.22;0.80;;;;;;;-141.50;100.00;63355.56;5046309;28;20810;-79
2023/09/22 09:53:33;;;;;;;3.60;0.90;;;;;;;-141.50;100.00;63355.56;5030922;28;20450;-78
2023/09/22 09:56:02;;;;;;;0.93;0.60;;;;;;;-141.50;100.00;63355.56;5029729;28;20057;-80
2023/09/22 09:58:32;;;;;;;1.85;1.00;;;;;;;-141.50;100.00;63355.56;5014607;28;20107;-79
2023/09/22 10:01:01;;;;;;;1.90;0.70;;;;;;;-141.50;100.00;63355.56;5030933;28;20044;-80
2023/09/22 10:03:28;;;;;;;1.80;0.70;;;;;;;-141.50;100.00;63355.56;5033544;28;20049;-80
2023/09/22 10:05:56;;;;;;;0.95;0.55;;;;;;;-141.50;100.00;63355.56;5032488;28;20045;-80
2023/09/22 10:08:26;;;;;;;1.92;0.80;;;;;;;-141.50;100.00;63355.56;5015994;28;20115;-86
2023/09/22 10:10:58;;;;;;;1.50;0.70;;;;;;;-141.50;100.00;63355.56;5033862;28;20042;-86
2023/09/22 10:13:27;;;;;;;1.13;0.70;;;;;;;-141.50;100.00;63355.56;5038999;28;20046;-86
2023/09/22 10:15:55;;;;;;;4.20;0.60;;;;;;;-141.50;100.00;63355.56;5043908;28;20045;-85
2023/09/22 10:18:46;;;;;;;1.38;0.63;;;;;;;-141.50;100.00;63355.56;5038314;28;20080;-87
2023/09/22 10:21:28;;;;;;;2.08;0.75;;;;;;;-141.50;100.00;63355.56;5034692;28;20463;-86
2023/09/22 10:24:19;;;;;;;1.88;0.60;;;;;;;-141.50;100.00;63355.56;5034840;28;20042;-85
2023/09/22 10:27:07;;;;;;;1.27;0.90;;;;;;;-141.50;100.00;63355.56;5034274;28;20596;-82
2023/09/22 10:29:35;;;;;;;2.22;1.00;;;;;;;-141.50;100.00;63355.56;5036236;28;20179;-84
2023/09/22 10:32:26;;;;;;;1.55;0.60;;;;;;;-141.50;100.00;63355.56;5039225;28;20103;-81
2023/09/22 10:34:55;;;;;;;1.73;0.70;;;;;;;-141.50;100.00;63355.56;5037618;28;20183;-82
2023/09/22 10:37:27;;;;;;;1.88;0.73;;;;;;;-141.50;100.00;63355.56;5037751;28;20041;-80
2023/09/22 10:40:09;;;;;;;1.25;0.82;;;;;;;-141.50;100.00;63355.56;5039464;28;20072;-79
2023/09/22 10:42:48;;;;;;;1.67;0.80;;;;;;;-141.50;100.00;63355.56;5041766;28;20059;-82
2023/09/22 10:45:21;;;;;;;1.95;0.85;;;;;;;-141.50;100.00;63355.56;5023308;28;20179;-81
2023/09/22 10:47:52;;;;;;;1.33;0.70;;;;;;;-141.50;100.00;63355.56;5033233;28;20065;-81
2023/09/22 10:50:30;;;;;;;1.20;0.80;;;;;;;-141.50;100.00;63355.56;5034433;28;20112;-81
2023/09/22 10:53:04;;;;;;;5.75;0.82;;;;;;;-141.50;100.00;63355.56;5032711;28;20455;-82
2023/09/22 10:55:36;;;;;;;0.75;0.60;;;;;;;-141.50;100.00;63355.56;5030432;28;20053;-82
2023/09/22 10:58:04;;;;;;;3.63;0.70;;;;;;;-141.50;100.00;63355.56;5031569;28;20073;-83
2023/09/22 11:00:32;;;;;;;1.60;0.80;;;;;;;-141.50;100.00;63355.56;5033177;28;20057;-81
2023/09/22 11:03:06;;;;;;;0.80;0.60;;;;;;;-141.50;100.00;63355.56;5030166;28;20057;-82
2023/09/22 11:05:34;;;;;;;0.93;0.57;;;;;;;-141.50;100.00;63355.56;5029073;28;20169;-81
2023/09/22 11:08:11;;;;;;;0.98;0.50;;;;;;;-141.50;100.00;63355.56;5036609;28;20096;-84
2023/09/22 11:10:43;;;;;;;2.38;0.98;;;;;;;-141.50;100.00;63355.56;5031981;28;20080;-83
2023/09/22 11:13:12;;;;;;;1.90;0.75;;;;;;;-141.50;100.00;63355.56;5025678;28;20369;-84
2023/09/22 11:15:53;;;;;;;2.15;0.70;;;;;;;-141.50;100.00;63355.56;5031614;28;20814;-85
2023/09/22 11:18:20;;;;;;;1.92;0.82;;;;;;;-141.50;100.00;63355.56;5028099;28;20053;-85